createdAt,value
2018-07-12T00:01:23.172Z,16.10
2018-07-12T00:03:50.507Z,16.10
2018-07-12T00:06:17.821Z,16.10
2018-07-12T00:11:12.729Z,16.20
2018-07-12T00:16:07.760Z,16.20
2018-07-12T00:18:35.075Z,16.20
2018-07-12T00:21:02.509Z,16.20
2018-07-12T00:23:29.844Z,16.20
2018-07-12T00:25:57.168Z,16.20
2018-07-12T00:35:47.290Z,16.20
2018-07-12T00:38:14.624Z,16.20
2018-07-12T00:40:41.968Z,16.30
2018-07-12T00:43:09.345Z,16.20
2018-07-12T00:45:36.690Z,16.20
2018-07-12T00:48:04.084Z,16.20
2018-07-12T00:55:26.565Z,16.20
2018-07-12T00:57:53.908Z,16.20
2018-07-12T01:05:16.400Z,16.20
2018-07-12T01:07:43.712Z,16.10
2018-07-12T01:10:11.060Z,16.10
2018-07-12T01:12:38.412Z,16.10
2018-07-12T01:15:05.752Z,16.10
2018-07-12T01:17:33.076Z,16.10
2018-07-12T01:20:00.441Z,16.10
2018-07-12T01:22:27.776Z,16.10
2018-07-12T01:24:55.093Z,16.10
2018-07-12T01:27:22.436Z,16.10
2018-07-12T01:29:49.753Z,16.20
2018-07-12T01:32:17.068Z,16.20
2018-07-12T01:34:44.410Z,16.20
2018-07-12T01:37:11.729Z,16.20
2018-07-12T01:39:39.073Z,16.10
2018-07-12T01:42:06.454Z,16.10
2018-07-12T01:44:33.824Z,16.10
2018-07-12T01:47:01.161Z,16.00
2018-07-12T01:49:28.500Z,16.00
2018-07-12T01:51:55.844Z,16.00
2018-07-12T01:54:23.156Z,15.90
2018-07-12T01:56:50.500Z,15.90
2018-07-12T01:59:17.812Z,15.90
2018-07-12T02:01:45.123Z,15.90
2018-07-12T02:04:12.464Z,15.80
2018-07-12T02:06:39.784Z,15.80
2018-07-12T02:09:07.141Z,15.80
2018-07-12T02:11:34.554Z,15.70
2018-07-12T02:14:01.892Z,15.70
2018-07-12T02:16:29.216Z,15.70
2018-07-12T02:18:56.528Z,15.70
2018-07-12T02:21:23.866Z,15.60
2018-07-12T02:23:51.180Z,15.60
2018-07-12T02:26:18.517Z,15.60
2018-07-12T02:28:45.836Z,15.50
2018-07-12T02:33:40.755Z,15.40
2018-07-12T02:41:04.589Z,15.30
2018-07-12T02:43:31.948Z,15.30
2018-07-12T02:45:59.284Z,15.30
2018-07-12T02:50:54.249Z,15.20
2018-07-12T02:53:21.564Z,15.20
2018-07-12T02:55:48.922Z,15.20
2018-07-12T02:58:16.246Z,15.20
2018-07-12T03:03:11.191Z,15.10
2018-07-12T03:05:38.596Z,15.10
2018-07-12T03:08:05.981Z,15.10
2018-07-12T03:13:00.985Z,15.10
2018-07-12T03:15:28.317Z,15.10
2018-07-12T03:17:55.837Z,15.00
2018-07-12T03:20:23.227Z,15.00
2018-07-12T03:22:50.581Z,15.00
2018-07-12T03:25:17.958Z,15.00
2018-07-12T03:27:45.277Z,15.00
2018-07-12T03:30:12.591Z,15.00
2018-07-12T03:35:07.493Z,15.00
2018-07-12T03:37:34.833Z,15.00
2018-07-12T03:40:02.152Z,14.90
2018-07-12T03:42:29.504Z,14.90
2018-07-12T03:44:56.816Z,14.90
2018-07-12T03:49:51.727Z,14.90
2018-07-12T03:57:15.213Z,14.90
2018-07-12T03:59:42.553Z,14.90
2018-07-12T04:02:09.900Z,14.90
2018-07-12T04:04:37.226Z,14.90
2018-07-12T04:07:04.588Z,14.90
2018-07-12T04:09:31.908Z,14.90
2018-07-12T04:11:59.256Z,14.80
2018-07-12T04:14:26.579Z,14.90
2018-07-12T04:16:53.901Z,14.90
2018-07-12T04:19:21.256Z,14.90
2018-07-12T04:21:48.593Z,14.90
2018-07-12T04:24:15.960Z,14.90
2018-07-12T04:26:43.684Z,14.90
2018-07-12T04:29:11.000Z,14.90
2018-07-12T04:31:38.337Z,14.90
2018-07-12T04:34:05.663Z,15.00
2018-07-12T04:36:33.188Z,15.00
2018-07-12T04:39:00.502Z,14.90
2018-07-12T04:41:27.816Z,14.90
2018-07-12T04:46:22.790Z,14.90
2018-07-12T04:48:50.124Z,15.00
2018-07-12T04:51:17.492Z,15.00
2018-07-12T04:53:45.236Z,15.00
2018-07-12T04:56:12.668Z,15.00
2018-07-12T05:01:07.789Z,15.00
2018-07-12T05:06:02.733Z,15.10
2018-07-12T05:08:30.053Z,15.10
2018-07-12T05:10:57.372Z,15.10
2018-07-12T05:13:24.729Z,15.10
2018-07-12T05:15:52.052Z,15.10
2018-07-12T05:18:19.429Z,15.20
2018-07-12T05:20:46.757Z,15.20
2018-07-12T05:23:14.596Z,15.30
2018-07-12T05:30:37.638Z,15.50
2018-07-12T05:33:04.993Z,15.60
2018-07-12T05:35:33.504Z,15.70
2018-07-12T05:38:02.016Z,15.80
2018-07-12T05:40:30.574Z,15.90
2018-07-12T05:42:59.109Z,16.00
2018-07-12T05:45:27.793Z,16.10
2018-07-12T05:47:56.349Z,16.30
2018-07-12T05:52:53.005Z,16.50
2018-07-12T05:55:21.492Z,16.60
2018-07-12T05:57:49.953Z,16.70
2018-07-12T06:00:18.697Z,16.70
2018-07-12T06:02:47.190Z,16.80
2018-07-12T06:05:15.672Z,16.90
2018-07-12T06:07:44.128Z,16.90
2018-07-12T06:10:12.628Z,17.00
2018-07-12T06:12:41.088Z,17.00
2018-07-12T06:15:09.584Z,17.00
2018-07-12T06:17:38.053Z,17.00
2018-07-12T06:20:09.001Z,17.10
2018-07-12T06:22:37.480Z,17.10
2018-07-12T06:25:06.212Z,17.10
2018-07-12T06:27:34.814Z,17.10
2018-07-12T06:30:03.464Z,17.10
2018-07-12T06:32:31.864Z,17.10
2018-07-12T06:35:00.320Z,17.10
2018-07-12T06:37:28.805Z,17.10
2018-07-12T06:39:57.261Z,17.00
2018-07-12T06:42:25.777Z,17.10
2018-07-12T06:44:54.254Z,17.20
2018-07-12T06:47:22.733Z,17.30
2018-07-12T06:49:51.216Z,17.50
2018-07-12T06:52:19.696Z,17.60
2018-07-12T06:54:48.196Z,17.80
2018-07-12T06:57:16.714Z,17.90
2018-07-12T06:59:45.184Z,18.00
2018-07-12T07:02:13.642Z,18.10
2018-07-12T07:04:42.348Z,18.20
2018-07-12T07:07:11.084Z,18.40
2018-07-12T07:09:39.580Z,18.50
2018-07-12T07:12:08.116Z,18.50
2018-07-12T07:14:36.674Z,18.60
2018-07-12T07:22:01.468Z,18.70
2018-07-12T07:24:30.279Z,18.70
2018-07-12T07:26:58.773Z,18.70
2018-07-12T07:31:56.472Z,18.80
2018-07-12T07:34:24.974Z,18.90
2018-07-12T07:36:53.453Z,18.90
2018-07-12T07:39:21.956Z,19.00
2018-07-12T07:41:50.432Z,19.10
2018-07-12T07:44:18.908Z,19.10
2018-07-12T07:46:47.400Z,19.10
2018-07-12T07:49:15.876Z,19.20
2018-07-12T07:51:44.357Z,19.20
2018-07-12T07:54:12.817Z,19.30
2018-07-12T07:56:41.300Z,19.40
2018-07-12T07:59:09.780Z,19.50
2018-07-12T08:01:38.240Z,19.70
2018-07-12T08:04:06.728Z,19.80
2018-07-12T08:06:35.194Z,19.90
2018-07-12T08:11:32.397Z,20.10
2018-07-12T08:14:00.865Z,20.30
2018-07-12T08:16:29.488Z,20.50
2018-07-12T08:18:57.961Z,20.50
2018-07-12T08:21:26.465Z,20.40
2018-07-12T08:23:54.932Z,20.30
2018-07-12T08:26:23.404Z,20.20
2018-07-12T08:28:51.952Z,20.10
2018-07-12T08:31:20.491Z,20.10
2018-07-12T08:33:48.973Z,20.10
2018-07-12T08:36:17.490Z,20.20
2018-07-12T08:38:45.948Z,20.20
2018-07-12T08:41:14.424Z,20.10
2018-07-12T08:43:42.884Z,20.20
2018-07-12T08:46:11.403Z,20.10
2018-07-12T08:48:41.464Z,20.10
2018-07-12T08:51:09.973Z,20.20
2018-07-12T08:53:38.428Z,20.20
2018-07-12T08:56:06.920Z,20.30
2018-07-12T08:58:35.452Z,20.50
2018-07-12T09:01:03.924Z,20.60
2018-07-12T09:06:00.561Z,20.90
2018-07-12T09:08:29.052Z,20.90
2018-07-12T09:10:57.553Z,20.90
2018-07-12T09:13:26.017Z,20.80
2018-07-12T09:15:54.520Z,20.80
2018-07-12T09:18:22.972Z,20.80
2018-07-12T09:20:51.485Z,20.80
2018-07-12T09:23:19.932Z,20.80
2018-07-12T09:25:48.448Z,20.90
2018-07-12T09:28:16.920Z,21.00
2018-07-12T09:30:45.430Z,21.10
2018-07-12T09:33:13.888Z,21.20
2018-07-12T09:35:42.340Z,21.10
2018-07-12T09:38:22.044Z,21.20
2018-07-12T09:40:50.553Z,21.40
2018-07-12T09:43:19.016Z,21.50
2018-07-12T09:45:47.493Z,21.60
2018-07-12T09:48:15.957Z,21.70
2018-07-12T09:50:44.447Z,21.70
2018-07-12T09:53:12.908Z,21.60
2018-07-12T09:55:41.431Z,21.60
2018-07-12T09:58:28.641Z,21.60
2018-07-12T10:01:02.645Z,21.60
2018-07-12T10:03:36.381Z,21.60
2018-07-12T10:06:10.288Z,21.60
2018-07-12T10:08:44.132Z,21.70
2018-07-12T10:13:46.344Z,22.20
2018-07-12T10:16:20.188Z,22.40
2018-07-12T10:18:48.644Z,22.70
2018-07-12T10:21:17.101Z,23.00
2018-07-12T10:23:45.568Z,23.10
2018-07-12T10:26:14.024Z,23.30
2018-07-12T10:28:42.513Z,23.40
2018-07-12T10:31:11.004Z,23.50
2018-07-12T10:38:35.860Z,24.10
2018-07-12T10:41:04.413Z,24.10
2018-07-12T10:48:29.304Z,24.30
2018-07-12T10:50:57.812Z,24.60
2018-07-12T10:53:26.312Z,24.60
2018-07-12T10:58:23.009Z,25.00
2018-07-12T11:00:51.500Z,25.40
2018-07-12T11:03:20.009Z,25.70
2018-07-12T11:05:48.516Z,25.90
2018-07-12T11:08:17.028Z,26.20
2018-07-12T11:10:45.513Z,26.30
2018-07-12T11:13:19.753Z,26.20
2018-07-12T11:15:48.613Z,26.20
2018-07-12T11:18:17.129Z,26.10
2018-07-12T11:20:45.591Z,26.10
2018-07-12T11:23:14.100Z,26.30
2018-07-12T11:25:42.692Z,26.30
2018-07-12T11:28:11.233Z,26.20
2018-07-12T11:33:19.036Z,25.90
2018-07-12T11:35:47.494Z,26.10
2018-07-12T11:40:44.121Z,26.80
2018-07-12T11:43:12.581Z,26.70
2018-07-12T11:45:41.068Z,27.00
2018-07-12T11:48:09.529Z,27.40
2018-07-12T11:50:38.012Z,27.80
2018-07-12T11:53:06.506Z,28.10
2018-07-12T11:55:34.965Z,28.10
2018-07-12T11:58:03.456Z,28.30
2018-07-12T12:00:31.933Z,28.50
2018-07-12T12:03:00.397Z,28.80
2018-07-12T12:05:28.893Z,29.10
2018-07-12T12:07:57.352Z,29.10
2018-07-12T12:10:25.836Z,29.60
2018-07-12T12:15:22.489Z,30.70
2018-07-12T12:17:50.955Z,31.10
2018-07-12T12:22:47.577Z,31.90
2018-07-12T12:25:16.049Z,32.50
2018-07-12T12:27:44.540Z,33.70
2018-07-12T12:30:13.004Z,34.60
2018-07-12T12:32:41.477Z,35.10
2018-07-12T12:35:09.957Z,36.20
2018-07-12T12:37:38.457Z,36.90
2018-07-12T12:40:06.968Z,37.10
2018-07-12T12:42:35.447Z,37.90
2018-07-12T12:45:04.096Z,39.90
2018-07-12T12:47:32.597Z,39.40
2018-07-12T12:50:01.150Z,38.30
2018-07-12T12:52:29.678Z,38.20
2018-07-12T12:54:58.201Z,37.60
2018-07-12T12:57:26.733Z,37.80
2018-07-12T12:59:55.305Z,39.50
2018-07-12T13:02:23.866Z,41.10
2018-07-12T13:04:52.382Z,42.10
2018-07-12T13:07:20.900Z,43.00
2018-07-12T13:12:17.621Z,40.00
2018-07-12T13:14:46.378Z,39.30
2018-07-12T13:17:14.916Z,40.00
2018-07-12T13:19:43.459Z,41.60
2018-07-12T13:22:11.980Z,42.40
2018-07-12T13:32:04.998Z,41.00
2018-07-12T13:39:29.744Z,38.50
2018-07-12T13:41:58.208Z,38.50
2018-07-12T13:46:55.668Z,40.60
2018-07-12T13:49:24.155Z,41.80
2018-07-12T13:54:21.728Z,42.80
2018-07-12T13:56:50.745Z,42.00
2018-07-12T13:59:19.217Z,40.40
2018-07-12T14:01:47.696Z,38.90
2018-07-12T14:06:44.304Z,35.40
2018-07-12T14:09:13.568Z,34.80
2018-07-12T14:11:42.022Z,34.30
2018-07-12T14:14:10.500Z,34.00
2018-07-12T14:16:38.990Z,33.80
2018-07-12T14:21:35.632Z,33.50
2018-07-12T14:24:04.148Z,33.40
2018-07-12T14:26:32.637Z,33.10
2018-07-12T14:29:01.107Z,32.70
2018-07-12T14:31:29.630Z,32.70
2018-07-12T14:33:58.088Z,32.70
2018-07-12T14:36:26.554Z,32.60
2018-07-12T14:38:55.033Z,32.70
2018-07-12T14:41:23.505Z,32.50
2018-07-12T14:46:20.118Z,32.00
2018-07-12T14:48:48.585Z,31.90
2018-07-12T14:51:17.094Z,31.70
2018-07-12T14:53:45.564Z,31.40
2018-07-12T14:56:14.044Z,31.10
2018-07-12T14:58:42.492Z,30.90
2018-07-12T15:01:10.995Z,30.70
2018-07-12T15:03:39.456Z,30.60
2018-07-12T15:06:07.916Z,30.30
2018-07-12T15:08:36.408Z,30.30
2018-07-12T15:11:04.861Z,30.50
2018-07-12T15:13:33.348Z,30.60
2018-07-12T15:18:29.951Z,30.80
2018-07-12T15:20:58.424Z,30.90
2018-07-12T15:23:26.896Z,30.80
2018-07-12T15:25:55.410Z,30.70
2018-07-12T15:28:23.867Z,30.80
2018-07-12T15:30:52.345Z,30.90
2018-07-12T15:33:20.809Z,30.30
2018-07-12T15:35:49.269Z,30.10
2018-07-12T15:40:45.940Z,30.00
2018-07-12T15:43:14.392Z,30.00
2018-07-12T15:45:42.865Z,29.60
2018-07-12T15:48:11.356Z,29.60
2018-07-12T15:50:39.850Z,29.50
2018-07-12T15:53:08.399Z,29.70
2018-07-12T15:55:36.795Z,29.80
2018-07-12T15:58:08.825Z,30.00
2018-07-12T16:00:37.409Z,29.90
2018-07-12T16:03:05.912Z,29.80
2018-07-12T16:05:34.367Z,29.70
2018-07-12T16:08:02.868Z,29.60
2018-07-12T16:10:31.544Z,29.30
2018-07-12T16:13:00.869Z,29.20
2018-07-12T16:15:29.356Z,29.30
2018-07-12T16:17:57.816Z,29.40
2018-07-12T16:20:26.312Z,29.40
2018-07-12T16:22:54.764Z,29.20
2018-07-12T16:25:23.248Z,29.10
2018-07-12T16:30:22.361Z,29.00
2018-07-12T16:35:18.985Z,29.20
2018-07-12T16:37:47.480Z,29.40
2018-07-12T16:40:15.955Z,29.60
2018-07-12T16:42:44.468Z,29.60
2018-07-12T16:47:41.969Z,29.00
2018-07-12T16:50:10.440Z,28.90
2018-07-12T16:52:38.932Z,28.70
2018-07-12T16:55:07.416Z,28.50
2018-07-12T16:57:35.872Z,28.20
2018-07-12T17:02:33.632Z,27.70
2018-07-12T17:05:02.160Z,27.60
2018-07-12T17:07:30.688Z,27.50
2018-07-12T17:09:59.180Z,27.50
2018-07-12T17:12:27.680Z,27.50
2018-07-12T17:17:24.304Z,27.40
2018-07-12T17:19:52.768Z,27.40
2018-07-12T17:22:21.256Z,27.20
2018-07-12T17:29:46.025Z,27.00
2018-07-12T17:34:42.644Z,27.00
2018-07-12T17:37:11.113Z,26.90
2018-07-12T17:39:39.572Z,26.80
2018-07-12T17:42:08.084Z,26.70
2018-07-12T17:44:36.577Z,26.60
2018-07-12T17:47:05.136Z,26.60
2018-07-12T17:49:33.596Z,26.60
2018-07-12T17:52:02.082Z,26.50
2018-07-12T17:54:30.572Z,26.40
2018-07-12T17:56:59.029Z,26.40
2018-07-12T17:59:27.500Z,26.20
2018-07-12T18:04:24.085Z,25.90
2018-07-12T18:06:52.600Z,25.70
2018-07-12T18:09:21.068Z,25.70
2018-07-12T18:11:49.544Z,25.60
2018-07-12T18:14:18.084Z,25.60
2018-07-12T18:16:46.501Z,25.60
2018-07-12T18:19:14.989Z,25.50
2018-07-12T18:21:43.481Z,25.40
2018-07-12T18:24:11.967Z,25.40
2018-07-12T18:26:40.422Z,25.30
2018-07-12T18:29:08.892Z,25.20
2018-07-12T18:31:37.390Z,25.10
2018-07-12T18:34:06.028Z,25.10
2018-07-12T18:36:35.807Z,25.00
2018-07-12T18:39:05.560Z,24.90
2018-07-12T18:41:34.073Z,24.80
2018-07-12T18:44:02.593Z,24.80
2018-07-12T18:46:31.134Z,24.80
2018-07-12T18:48:59.678Z,24.80
2018-07-12T18:51:28.191Z,24.70
2018-07-12T18:53:56.716Z,24.60
2018-07-12T18:56:25.290Z,24.60
2018-07-12T18:58:53.813Z,24.50
2018-07-12T19:03:50.573Z,24.40
2018-07-12T19:06:19.153Z,24.40
2018-07-12T19:08:47.710Z,24.30
2018-07-12T19:11:16.294Z,24.20
2018-07-12T19:13:45.158Z,24.20
2018-07-12T19:16:13.682Z,24.10
2018-07-12T19:18:42.235Z,24.00
2018-07-12T19:21:10.799Z,24.00
2018-07-12T19:23:39.313Z,23.90
2018-07-12T19:26:07.857Z,23.90
2018-07-12T19:28:36.361Z,23.90
2018-07-12T19:31:05.029Z,23.80
2018-07-12T19:33:33.568Z,23.80
2018-07-12T19:36:02.099Z,23.80
2018-07-12T19:38:30.728Z,23.70
2018-07-12T19:40:59.661Z,23.70
2018-07-12T19:43:28.189Z,23.70
2018-07-12T19:45:56.738Z,23.70
2018-07-12T19:48:25.298Z,23.70
2018-07-12T19:53:21.974Z,23.60
2018-07-12T19:55:50.527Z,23.60
2018-07-12T19:58:19.039Z,23.50
2018-07-12T20:00:47.575Z,23.50
2018-07-12T20:03:16.126Z,23.40
2018-07-12T20:05:44.679Z,23.30
2018-07-12T20:08:13.225Z,23.20
2018-07-12T20:10:41.745Z,23.20
2018-07-12T20:13:10.309Z,23.20
2018-07-12T20:15:38.866Z,23.10
2018-07-12T20:18:07.861Z,23.10
2018-07-12T20:20:36.514Z,23.10
2018-07-12T20:23:05.022Z,23.10
2018-07-12T20:25:33.581Z,23.10
2018-07-12T20:28:02.117Z,23.00
2018-07-12T20:30:30.685Z,23.00
2018-07-12T20:32:59.209Z,23.00
2018-07-12T20:35:27.786Z,23.00
2018-07-12T20:37:56.878Z,23.00
2018-07-12T20:40:25.408Z,22.90
2018-07-12T20:42:53.962Z,22.90
2018-07-12T20:45:22.534Z,22.90
2018-07-12T20:47:51.102Z,22.80
2018-07-12T20:52:47.818Z,22.70
2018-07-12T20:55:16.401Z,22.70
2018-07-12T20:57:44.934Z,22.70
2018-07-12T21:00:13.501Z,22.70
2018-07-12T21:05:10.274Z,22.70
2018-07-12T21:07:38.912Z,22.70
2018-07-12T21:10:07.887Z,22.70
2018-07-12T21:12:36.453Z,22.70
2018-07-12T21:15:05.176Z,22.70
2018-07-12T21:17:33.774Z,22.70
2018-07-12T21:20:02.301Z,22.70
2018-07-12T21:22:31.101Z,22.70
2018-07-12T21:24:59.682Z,22.70
2018-07-12T21:27:28.204Z,22.70
2018-07-12T21:29:56.750Z,22.70
2018-07-12T21:32:25.322Z,22.70
2018-07-12T21:34:53.851Z,22.60
2018-07-12T21:37:22.400Z,22.60
2018-07-12T21:39:50.906Z,22.50
2018-07-12T21:42:19.486Z,22.50
2018-07-12T21:44:48.016Z,22.50
2018-07-12T21:49:44.757Z,22.40
2018-07-12T21:52:13.245Z,22.30
2018-07-12T21:54:41.862Z,22.40
2018-07-12T21:57:10.377Z,22.30
2018-07-12T21:59:38.982Z,22.20
2018-07-12T22:02:07.818Z,22.10
2018-07-12T22:04:36.390Z,22.10
2018-07-12T22:08:21.790Z,22.10
2018-07-12T22:10:51.682Z,22.00
2018-07-12T22:13:20.884Z,22.00
2018-07-12T22:15:49.501Z,22.00
2018-07-12T22:18:18.027Z,22.00
2018-07-12T22:20:46.492Z,22.00
2018-07-12T22:23:14.981Z,22.00
2018-07-12T22:25:43.523Z,22.00
2018-07-12T22:28:11.981Z,22.00
2018-07-12T22:30:40.541Z,22.00
2018-07-12T22:33:08.969Z,21.90
2018-07-12T22:35:37.468Z,21.90
2018-07-12T22:38:05.989Z,21.90
2018-07-12T22:40:34.472Z,21.80
2018-07-12T22:43:02.960Z,21.80
2018-07-12T22:45:31.448Z,21.80
2018-07-12T22:50:28.200Z,21.70
2018-07-12T22:52:56.664Z,21.80
2018-07-12T22:55:25.148Z,21.70
2018-07-12T22:57:53.604Z,21.60
2018-07-12T23:00:22.115Z,21.60
2018-07-12T23:02:50.576Z,21.50
2018-07-12T23:05:19.089Z,21.50
2018-07-12T23:07:47.580Z,21.40
2018-07-12T23:12:44.205Z,21.30
2018-07-12T23:15:12.677Z,21.30
2018-07-12T23:17:41.421Z,21.20
2018-07-12T23:20:09.884Z,21.10
2018-07-12T23:25:06.495Z,21.10
2018-07-12T23:27:34.961Z,21.00
2018-07-12T23:30:03.537Z,21.00
2018-07-12T23:32:31.999Z,20.90
2018-07-12T23:35:00.497Z,20.90
2018-07-12T23:37:28.961Z,20.80
2018-07-12T23:39:57.424Z,20.80
2018-07-12T23:44:54.041Z,20.70
2018-07-12T23:47:22.549Z,20.70
2018-07-12T23:49:51.007Z,20.70
2018-07-12T23:52:19.504Z,20.60
2018-07-12T23:54:47.967Z,20.60
2018-07-12T23:57:16.428Z,20.60
2018-07-12T23:59:44.916Z,20.50
